Hauptseite
METAR-TAF:

METAR-TAF

Flughäfen :

Eleftherios-Venizelos-Flughafen Athen

Athen, Griechenland

Breite: 37-56N, Länge: 023-56E, Höhe: 94 m

Beobachtung

Neuester Wetterbericht von vor 32 Minuten, um 02:20 UTC
Wind 7 kt aus Nord/Nordwest
Temperatur 8°C
Luftfeuchtigkeit 61%
Luftdruck 1027 hPa
Sichtweite 10 km oder mehr
Leicht bewölkt in der Höhe von 3000 ft

METAR: LGAV 060220Z 34007KT 9999 FEW030 08/01 Q1027 NOSIG

Zeit: 04:52 (02:52 UTC)

Prognose

Neuester Wetterbericht von vor 3 Stunden und 52 Minuten, um 23:00 UTC
Gültige Prognose vom 06 um 00 UTC bis 06 um 24 UTC
Wind 15 kt aus Nord
Sichtweite 10 km oder mehr
Leicht bewölkt in der Höhe von 2000 ft
Aufgelockert bewölkt in der Höhe von 7000 ft
Übergehend zu
vom 06 um 17 UTC bis 06 um 19 UTC
Wind 5 kt aus unterschiedlichen Richtungen

TAF: LGAV 052300Z 0600/0624 35015KT 9999 FEW020 SCT070 BECMG 0617/0619 VRB05KT

Wetterbeobachtungen und Prognosen von mehr als 4000 Flughäfen (METAR und TAF Bericht).

Die verfügbaren Stationen werden durch gelbe und rote Markierungen auf der Karte dargestellt.

Führen Sie die Maus auf sie, um den Namen der Station zu sehen.

Darauf klicken, um die Beobachtung von Wetterbeobachtungen und Prognosen zu sehen.

Um die Karte zu ändern : klicken Sie auf den grünen Tasten mit einem schwarzen Kreuz Zum Vergrößern, auf den grünen Button mit einem Gedankenstrich zu verkleinern, oder auf die grünen Pfeile für benachbarte Karten.


METAR-TAF: